createdAt,value
2018-02-15T00:32:06.619Z,9.87
2018-02-15T00:34:36.533Z,11.37
2018-02-15T00:37:05.043Z,5.57
2018-02-15T00:39:33.433Z,7.37
2018-02-15T00:42:01.798Z,6.17
2018-02-15T00:44:36.398Z,10.07
2018-02-15T00:47:06.827Z,10.47
2018-02-15T00:49:35.302Z,8.67
2018-02-15T00:52:03.681Z,9.10
2018-02-15T00:54:32.073Z,12.90
2018-02-15T00:57:00.541Z,15.80
2018-02-15T00:59:28.931Z,10.43
2018-02-15T01:01:57.200Z,8.10
2018-02-15T01:04:25.674Z,10.57
2018-02-15T01:06:54.065Z,6.33
2018-02-15T01:09:23.045Z,8.63
2018-02-15T01:11:51.535Z,6.73
2018-02-15T01:14:19.937Z,8.87
2018-02-15T01:16:48.207Z,6.37
2018-02-15T01:19:16.661Z,5.17
2018-02-15T01:21:45.154Z,7.30
2018-02-15T01:24:21.205Z,6.77
2018-02-15T01:26:49.580Z,8.10
2018-02-15T01:29:18.063Z,14.93
2018-02-15T01:31:46.438Z,11.77
2018-02-15T01:34:14.919Z,6.70
2018-02-15T01:36:44.019Z,6.77
2018-02-15T01:39:12.307Z,7.57
2018-02-15T01:41:46.814Z,6.57
2018-02-15T01:44:15.300Z,10.30
2018-02-15T01:46:43.625Z,9.53
2018-02-15T01:49:12.077Z,6.63
2018-02-15T01:51:40.376Z,10.00
2018-02-15T01:54:10.250Z,7.50
2018-02-15T01:56:45.893Z,9.40
2018-02-15T01:59:15.444Z,9.97
2018-02-15T02:01:43.733Z,8.00
2018-02-15T02:04:12.051Z,11.90
2018-02-15T02:06:40.697Z,8.27
2018-02-15T02:09:10.445Z,9.63
2018-02-15T02:11:38.924Z,8.23
2018-02-15T02:14:07.234Z,11.10
2018-02-15T02:16:35.613Z,8.33
2018-02-15T02:19:04.755Z,9.13
2018-02-15T02:21:33.841Z,13.57
2018-02-15T02:24:03.084Z,8.60
2018-02-15T02:26:31.559Z,11.20
2018-02-15T02:29:00.036Z,17.63
2018-02-15T02:31:28.335Z,14.47
2018-02-15T02:33:56.705Z,10.20
2018-02-15T02:36:25.887Z,9.40
2018-02-15T02:38:54.372Z,10.57
2018-02-15T02:41:22.844Z,11.10
2018-02-15T02:43:51.242Z,12.10
2018-02-15T02:46:20.172Z,12.40
2018-02-15T02:48:49.316Z,10.03
2018-02-15T02:51:17.621Z,13.17
2018-02-15T02:53:45.894Z,7.93
2018-02-15T02:56:14.347Z,12.10
2018-02-15T02:58:42.831Z,11.40
2018-02-15T03:01:11.306Z,12.07
2018-02-15T03:03:39.634Z,9.50
2018-02-15T03:06:09.731Z,9.13
2018-02-15T03:08:46.850Z,10.10
2018-02-15T03:11:15.906Z,11.07
2018-02-15T03:13:54.012Z,9.07
2018-02-15T03:16:22.986Z,12.37
2018-02-15T03:18:57.973Z,10.23
2018-02-15T03:21:26.804Z,8.07
2018-02-15T03:24:07.604Z,9.93
2018-02-15T03:26:37.362Z,13.90
2018-02-15T03:29:06.435Z,11.10
2018-02-15T03:31:36.703Z,12.73
2018-02-15T03:34:05.110Z,11.03
2018-02-15T03:36:33.559Z,9.57
2018-02-15T03:39:01.869Z,13.33
2018-02-15T03:41:30.243Z,15.10
2018-02-15T03:43:58.620Z,11.17
2018-02-15T03:46:26.995Z,11.87
2018-02-15T03:48:55.447Z,11.93
2018-02-15T03:51:31.514Z,13.33
2018-02-15T03:53:59.993Z,14.63
2018-02-15T03:56:28.467Z,14.53
2018-02-15T03:58:56.948Z,11.73
2018-02-15T04:01:25.226Z,11.10
2018-02-15T04:04:07.062Z,10.73
2018-02-15T04:06:36.143Z,11.20
2018-02-15T04:09:04.797Z,12.07
2018-02-15T04:11:33.178Z,11.03
2018-02-15T04:14:01.977Z,10.53
2018-02-15T04:16:31.468Z,13.60
2018-02-15T04:19:03.134Z,12.80
2018-02-15T04:21:32.644Z,11.60
2018-02-15T04:24:01.637Z,11.70
2018-02-15T04:26:43.618Z,13.40
2018-02-15T04:29:24.789Z,12.07
2018-02-15T04:31:53.180Z,12.17
2018-02-15T04:34:34.685Z,14.30
2018-02-15T04:37:02.980Z,12.17
2018-02-15T04:39:31.333Z,12.43
2018-02-15T04:41:59.643Z,16.37
2018-02-15T04:44:27.990Z,15.40
2018-02-15T04:47:12.007Z,16.40
2018-02-15T04:49:40.341Z,15.53
2018-02-15T04:52:10.326Z,15.43
2018-02-15T04:54:40.845Z,15.40
2018-02-15T04:57:09.296Z,19.60
2018-02-15T04:59:37.814Z,14.43
2018-02-15T05:02:06.186Z,16.63
2018-02-15T05:04:34.663Z,18.50
2018-02-15T05:07:03.037Z,16.23
2018-02-15T05:09:31.735Z,16.10
2018-02-15T05:12:00.249Z,15.40
2018-02-15T05:14:29.434Z,14.67
2018-02-15T05:16:57.988Z,17.93
2018-02-15T05:19:32.589Z,17.73
2018-02-15T05:22:01.728Z,22.53
2018-02-15T05:24:30.062Z,18.33
2018-02-15T05:26:58.450Z,18.37
2018-02-15T05:29:40.281Z,17.17
2018-02-15T05:32:12.555Z,18.80
2018-02-15T05:34:41.008Z,19.67
2018-02-15T05:37:09.391Z,14.47
2018-02-15T05:39:38.057Z,19.00
2018-02-15T05:42:06.458Z,17.73
2018-02-15T05:44:34.827Z,27.13
2018-02-15T05:47:03.351Z,32.67
2018-02-15T05:49:39.205Z,41.07
2018-02-15T05:52:08.897Z,34.43
2018-02-15T05:54:37.963Z,29.30
2018-02-15T05:57:06.270Z,31.07
2018-02-15T05:59:34.651Z,19.20
2018-02-15T06:02:03.125Z,24.40
2018-02-15T06:04:49.145Z,25.53
2018-02-15T06:07:19.140Z,15.03
2018-02-15T06:09:47.591Z,23.90
2018-02-15T06:12:15.994Z,19.00
2018-02-15T06:14:57.971Z,19.47
2018-02-15T06:17:26.313Z,19.67
2018-02-15T06:19:55.552Z,30.53
2018-02-15T06:22:23.947Z,18.23
2018-02-15T06:24:52.398Z,25.23
2018-02-15T06:27:20.879Z,19.47
2018-02-15T06:29:50.066Z,34.90
2018-02-15T06:32:19.176Z,28.13
2018-02-15T06:34:47.754Z,36.93
2018-02-15T06:37:16.089Z,28.50
2018-02-15T06:39:45.436Z,29.20
2018-02-15T06:42:13.725Z,22.63
2018-02-15T06:44:42.122Z,27.77
2018-02-15T06:47:10.441Z,19.27
2018-02-15T06:49:39.597Z,20.53
2018-02-15T06:52:25.793Z,22.53
2018-02-15T06:54:54.156Z,16.03
2018-02-15T06:57:22.561Z,20.73
2018-02-15T06:59:52.431Z,20.50
2018-02-15T07:02:21.028Z,18.60
2018-02-15T07:04:49.478Z,24.60
2018-02-15T07:07:17.974Z,11.40
2018-02-15T07:09:46.694Z,18.20
2018-02-15T07:12:15.139Z,16.37
2018-02-15T07:14:43.544Z,21.57
2018-02-15T07:17:12.028Z,20.70
2018-02-15T07:19:40.378Z,17.03
2018-02-15T07:22:08.857Z,19.43
2018-02-15T07:24:37.236Z,18.70
2018-02-15T07:27:05.723Z,23.57
2018-02-15T07:29:46.931Z,23.27
2018-02-15T07:32:15.477Z,21.10
2018-02-15T07:34:44.928Z,17.50
2018-02-15T07:37:13.473Z,17.27
2018-02-15T07:39:50.070Z,25.50
2018-02-15T07:42:19.336Z,15.47
2018-02-15T07:44:54.470Z,28.97
2018-02-15T07:47:23.060Z,20.10
2018-02-15T07:49:58.330Z,28.73
2018-02-15T07:52:26.770Z,20.77
2018-02-15T07:54:56.186Z,26.73
2018-02-15T07:57:31.722Z,20.60
2018-02-15T08:00:00.205Z,27.90
2018-02-15T08:02:35.784Z,30.53
2018-02-15T08:05:04.232Z,28.27
2018-02-15T08:07:32.719Z,36.90
2018-02-15T08:10:01.157Z,16.33
2018-02-15T08:12:34.590Z,18.20
2018-02-15T08:15:03.070Z,18.40
2018-02-15T08:17:34.838Z,31.20
2018-02-15T08:20:03.167Z,37.63
2018-02-15T08:22:32.261Z,25.87
2018-02-15T08:25:01.814Z,18.87
2018-02-15T08:27:30.479Z,17.27
2018-02-15T08:29:58.777Z,17.37
2018-02-15T08:32:30.723Z,27.03
2018-02-15T08:35:00.592Z,22.13
2018-02-15T08:37:30.059Z,15.93
2018-02-15T08:39:58.529Z,22.33
2018-02-15T08:42:27.249Z,20.70
2018-02-15T08:44:55.730Z,16.30
2018-02-15T08:47:24.187Z,15.13
2018-02-15T08:49:52.658Z,10.57
2018-02-15T08:52:21.063Z,17.27
2018-02-15T08:54:49.429Z,18.27
2018-02-15T08:57:17.779Z,8.07
2018-02-15T08:59:46.717Z,16.50
2018-02-15T09:02:15.024Z,14.57
2018-02-15T09:04:44.398Z,20.60
2018-02-15T09:07:20.079Z,11.63
2018-02-15T09:09:52.590Z,9.97
2018-02-15T09:12:21.136Z,12.90
2018-02-15T09:14:50.270Z,12.90
2018-02-15T09:17:18.674Z,16.03
2018-02-15T09:19:47.068Z,12.00
2018-02-15T09:22:15.510Z,12.13
2018-02-15T09:24:44.075Z,13.93
2018-02-15T09:27:12.576Z,12.43
2018-02-15T09:29:41.158Z,11.10
2018-02-15T09:32:09.855Z,9.67
2018-02-15T09:34:48.745Z,16.73
2018-02-15T09:37:17.877Z,10.83
2018-02-15T09:39:51.153Z,10.27
2018-02-15T09:42:19.664Z,12.53
2018-02-15T09:44:49.099Z,10.93
2018-02-15T09:47:25.042Z,10.57
2018-02-15T09:49:53.577Z,12.17
2018-02-15T09:52:25.957Z,5.80
2018-02-15T09:54:54.353Z,7.37
2018-02-15T09:57:22.811Z,9.33
2018-02-15T09:59:51.225Z,8.50
2018-02-15T10:02:19.768Z,7.55
2018-02-15T10:04:48.186Z,9.27
2018-02-15T10:07:16.736Z,7.15
2018-02-15T10:09:56.483Z,10.10
2018-02-15T10:12:24.957Z,6.73
2018-02-15T10:14:53.371Z,7.90
2018-02-15T10:17:27.839Z,8.63
2018-02-15T10:19:56.966Z,8.20
2018-02-15T10:22:25.437Z,9.30
2018-02-15T10:24:54.068Z,13.27
2018-02-15T10:27:24.038Z,7.00
2018-02-15T10:29:52.520Z,8.57
2018-02-15T10:32:21.099Z,12.40
2018-02-15T10:34:50.199Z,11.93
2018-02-15T10:37:18.674Z,7.70
2018-02-15T10:39:47.156Z,13.57
2018-02-15T10:42:17.377Z,12.03
2018-02-15T10:44:45.693Z,9.07
2018-02-15T10:47:14.052Z,7.57
2018-02-15T10:49:42.442Z,10.50
2018-02-15T10:52:10.788Z,11.07
2018-02-15T10:54:42.240Z,10.83
2018-02-15T10:57:10.591Z,9.30
2018-02-15T10:59:39.823Z,10.97
2018-02-15T11:02:13.888Z,12.30
2018-02-15T11:04:56.391Z,14.33
2018-02-15T11:07:25.691Z,13.73
2018-02-15T11:09:54.627Z,14.20
2018-02-15T11:12:22.941Z,9.63
2018-02-15T11:14:52.923Z,14.27
2018-02-15T11:17:21.435Z,8.83
2018-02-15T11:19:49.901Z,11.70
2018-02-15T11:22:18.274Z,10.20
2018-02-15T11:25:02.618Z,13.13
2018-02-15T11:27:31.098Z,12.23
2018-02-15T11:30:00.546Z,12.57
2018-02-15T11:32:29.090Z,11.88
2018-02-15T11:35:03.711Z,12.18
2018-02-15T11:37:32.187Z,8.18
2018-02-15T11:40:00.546Z,13.75
2018-02-15T11:42:29.053Z,16.30
2018-02-15T11:44:58.146Z,12.60
2018-02-15T11:47:26.627Z,13.30
2018-02-15T11:49:55.138Z,10.85
2018-02-15T11:52:34.192Z,14.18
2018-02-15T11:55:03.842Z,12.57
2018-02-15T11:57:32.323Z,12.00
2018-02-15T12:00:00.703Z,11.98
2018-02-15T12:02:29.037Z,9.15
2018-02-15T12:05:04.933Z,21.98
2018-02-15T12:07:33.443Z,34.92
2018-02-15T12:10:01.998Z,10.38
2018-02-15T12:12:30.481Z,12.37
2018-02-15T12:14:59.471Z,11.18
2018-02-15T12:17:28.105Z,9.13
2018-02-15T12:19:56.437Z,11.50
2018-02-15T12:22:24.813Z,9.70
2018-02-15T12:24:53.123Z,13.52
2018-02-15T12:27:21.569Z,19.35
2018-02-15T12:29:51.177Z,15.77
2018-02-15T12:32:28.472Z,13.38
2018-02-15T12:34:57.049Z,8.90
2018-02-15T12:37:26.097Z,10.20
2018-02-15T12:39:55.340Z,8.07
2018-02-15T12:42:23.824Z,8.50
2018-02-15T12:45:09.375Z,11.30
2018-02-15T12:47:38.805Z,9.48
2018-02-15T12:50:07.138Z,9.27
2018-02-15T12:52:35.459Z,11.43
2018-02-15T12:55:03.943Z,9.65
2018-02-15T12:57:32.422Z,11.75
2018-02-15T13:00:03.499Z,10.43
2018-02-15T13:02:35.539Z,10.75
2018-02-15T13:05:04.096Z,10.00
2018-02-15T13:07:32.487Z,14.02
2018-02-15T13:10:03.498Z,12.27
2018-02-15T13:12:44.725Z,11.93
2018-02-15T13:15:25.790Z,11.75
2018-02-15T13:17:54.454Z,12.07
2018-02-15T13:20:23.060Z,12.05
2018-02-15T13:22:52.189Z,15.52
2018-02-15T13:25:20.634Z,12.60
2018-02-15T13:28:07.240Z,14.70
2018-02-15T13:30:37.410Z,13.85
2018-02-15T13:33:06.810Z,11.83
2018-02-15T13:35:36.205Z,13.75
2018-02-15T13:38:19.283Z,11.60
2018-02-15T13:41:07.752Z,13.17
2018-02-15T13:43:36.137Z,15.10
2018-02-15T13:46:04.618Z,12.87
2018-02-15T13:48:52.552Z,16.87
2018-02-15T13:51:21.047Z,15.23
2018-02-15T13:53:49.595Z,14.13
2018-02-15T13:56:18.115Z,12.00
2018-02-15T13:58:46.732Z,17.63
2018-02-15T14:01:16.060Z,25.03
2018-02-15T14:03:51.486Z,26.73
2018-02-15T14:06:19.943Z,13.40
2018-02-15T14:08:49.114Z,14.80
2018-02-15T14:11:17.466Z,16.30
2018-02-15T14:13:45.869Z,108.17
2018-02-15T14:16:14.322Z,13.10
2018-02-15T14:18:43.133Z,13.20
2018-02-15T14:21:11.470Z,12.17
2018-02-15T14:23:43.246Z,15.33
2018-02-15T14:26:11.653Z,15.87
2018-02-15T14:28:39.979Z,14.07
2018-02-15T14:31:08.496Z,15.53
2018-02-15T14:33:36.858Z,11.63
2018-02-15T14:36:14.489Z,14.47
2018-02-15T14:39:02.812Z,14.65
2018-02-15T14:41:31.960Z,13.80
2018-02-15T14:44:01.609Z,12.93
2018-02-15T14:46:30.190Z,13.80
2018-02-15T14:49:04.607Z,15.45
2018-02-15T14:51:36.882Z,14.02
2018-02-15T14:54:05.275Z,14.85
2018-02-15T14:56:46.394Z,18.85
2018-02-15T14:59:15.918Z,13.20
2018-02-15T15:01:45.016Z,18.85
2018-02-15T15:04:13.475Z,11.80
2018-02-15T15:06:42.655Z,13.63
2018-02-15T15:09:20.005Z,13.93
2018-02-15T15:11:48.480Z,15.60
2018-02-15T15:14:16.862Z,15.07
2018-02-15T15:16:45.340Z,15.13
2018-02-15T15:19:27.203Z,17.60
2018-02-15T15:21:56.437Z,17.23
2018-02-15T15:24:24.918Z,20.17
2018-02-15T15:26:53.342Z,18.70
2018-02-15T15:29:27.920Z,18.63
2018-02-15T15:31:56.504Z,18.93
2018-02-15T15:34:24.938Z,15.57
2018-02-15T15:36:53.481Z,20.33
2018-02-15T15:39:21.950Z,20.90
2018-02-15T15:41:56.980Z,24.57
2018-02-15T15:44:25.768Z,23.97
2018-02-15T15:46:54.161Z,19.73
2018-02-15T15:49:23.537Z,19.27
2018-02-15T15:51:52.143Z,22.33
2018-02-15T15:54:20.524Z,24.87
2018-02-15T15:56:48.887Z,21.53
2018-02-15T15:59:24.648Z,20.73
2018-02-15T16:01:53.120Z,21.70
2018-02-15T16:04:21.437Z,20.37
2018-02-15T16:06:49.934Z,22.77
2018-02-15T16:09:24.425Z,22.77
2018-02-15T16:11:52.885Z,23.93
2018-02-15T16:14:21.183Z,23.30
2018-02-15T16:16:49.637Z,23.23
2018-02-15T16:19:18.036Z,24.83
2018-02-15T16:21:46.655Z,22.70
2018-02-15T16:24:15.185Z,21.43
2018-02-15T16:26:48.153Z,28.23
2018-02-15T16:29:16.531Z,23.23
2018-02-15T16:31:51.730Z,23.97
2018-02-15T16:34:27.144Z,27.90
2018-02-15T16:36:55.463Z,28.20
2018-02-15T16:39:23.992Z,30.07
2018-02-15T16:42:00.167Z,23.53
2018-02-15T16:44:30.050Z,27.97
2018-02-15T16:47:00.388Z,25.33
2018-02-15T16:49:28.885Z,30.00
2018-02-15T16:51:57.357Z,29.53
2018-02-15T16:54:25.832Z,32.37
2018-02-15T16:57:01.370Z,32.00
2018-02-15T16:59:30.061Z,30.63
2018-02-15T17:02:04.450Z,38.87
2018-02-15T17:04:33.681Z,42.27
2018-02-15T17:07:02.205Z,41.53
2018-02-15T17:09:32.379Z,39.70
2018-02-15T17:12:00.742Z,48.47
2018-02-15T17:14:29.158Z,37.83
2018-02-15T17:17:10.932Z,30.90
2018-02-15T17:19:42.605Z,34.20
2018-02-15T17:22:11.070Z,32.00
2018-02-15T17:24:39.449Z,28.87
2018-02-15T17:27:15.141Z,32.50
2018-02-15T17:29:43.606Z,26.53
2018-02-15T17:32:11.935Z,31.43
2018-02-15T17:34:40.458Z,19.80
2018-02-15T17:37:08.996Z,28.23
2018-02-15T17:39:37.442Z,27.93
2018-02-15T17:42:05.983Z,18.43
2018-02-15T17:44:34.388Z,22.87
2018-02-15T17:47:10.082Z,21.17
2018-02-15T17:49:38.492Z,24.00
2018-02-15T17:52:07.080Z,14.10
2018-02-15T17:54:35.967Z,18.03
2018-02-15T17:57:10.075Z,6.97
2018-02-15T17:59:38.486Z,17.80
2018-02-15T18:02:06.806Z,10.80
2018-02-15T18:04:35.979Z,9.27
2018-02-15T18:07:04.407Z,16.10
2018-02-15T18:09:32.740Z,15.40
2018-02-15T18:12:07.309Z,5.57
2018-02-15T18:14:35.717Z,10.40
2018-02-15T18:17:04.074Z,15.60
2018-02-15T18:19:32.444Z,6.53
2018-02-15T18:22:01.006Z,13.07
2018-02-15T18:24:36.701Z,4.43
2018-02-15T18:27:05.014Z,14.00
2018-02-15T18:29:33.592Z,9.73
2018-02-15T18:32:03.477Z,9.73
2018-02-15T18:34:31.960Z,4.30
2018-02-15T18:37:00.418Z,7.77
2018-02-15T18:39:28.997Z,9.30
2018-02-15T18:42:10.593Z,8.17
2018-02-15T18:44:38.982Z,11.57
2018-02-15T18:47:09.805Z,12.63
2018-02-15T18:49:38.935Z,15.27
2018-02-15T18:52:20.216Z,14.03
2018-02-15T18:54:53.298Z,5.80
2018-02-15T18:57:21.646Z,9.37
2018-02-15T18:59:50.121Z,9.70
2018-02-15T19:02:19.323Z,11.90
2018-02-15T19:04:48.026Z,8.40
2018-02-15T19:07:16.487Z,14.37
2018-02-15T19:09:44.888Z,6.00
2018-02-15T19:12:13.397Z,6.10
2018-02-15T19:14:41.898Z,10.53
2018-02-15T19:17:12.163Z,6.83
2018-02-15T19:19:42.193Z,11.77
2018-02-15T19:22:16.623Z,12.43
2018-02-15T19:24:45.915Z,21.27
2018-02-15T19:27:15.214Z,20.53
2018-02-15T19:29:43.708Z,15.13
2018-02-15T19:32:14.129Z,7.20
2018-02-15T19:34:42.472Z,16.17
2018-02-15T19:37:10.863Z,11.93
2018-02-15T19:39:39.332Z,14.87
2018-02-15T19:42:07.815Z,12.83
2018-02-15T19:44:36.946Z,20.10
2018-02-15T19:47:05.480Z,9.70
2018-02-15T19:49:40.975Z,9.27
2018-02-15T19:52:09.369Z,7.20
2018-02-15T19:54:37.858Z,11.83
2018-02-15T19:57:19.576Z,10.03
2018-02-15T19:59:48.100Z,9.03
2018-02-15T20:02:16.666Z,6.63
2018-02-15T20:04:45.142Z,9.50
2018-02-15T20:07:16.051Z,9.73
2018-02-15T20:09:51.849Z,10.07
2018-02-15T20:12:20.249Z,6.30
2018-02-15T20:14:50.421Z,4.20
2018-02-15T20:17:18.766Z,2.37
2018-02-15T20:19:53.515Z,7.87
2018-02-15T20:22:22.017Z,6.60
2018-02-15T20:24:51.380Z,5.70
2018-02-15T20:30:31.293Z,14.83
2018-02-15T20:33:07.138Z,14.80
2018-02-15T20:35:35.628Z,10.63
2018-02-15T20:38:16.705Z,8.57
2018-02-15T20:40:45.232Z,4.43
2018-02-15T20:43:20.193Z,12.23
2018-02-15T20:45:48.712Z,12.00
2018-02-15T20:48:17.526Z,6.60
2018-02-15T20:50:51.802Z,9.77
2018-02-15T20:53:26.174Z,6.27
2018-02-15T20:55:56.151Z,8.37
2018-02-15T20:58:25.644Z,12.17
2018-02-15T21:00:55.861Z,11.90
2018-02-15T21:03:24.273Z,10.83
2018-02-15T21:05:52.819Z,5.10
2018-02-15T21:08:21.407Z,6.57
2018-02-15T21:10:50.306Z,16.13
2018-02-15T21:13:18.671Z,8.60
2018-02-15T21:15:47.038Z,9.23
2018-02-15T21:18:18.820Z,12.43
2018-02-15T21:20:52.327Z,16.63
2018-02-15T21:23:21.095Z,16.07
2018-02-15T21:25:57.550Z,8.47
2018-02-15T21:28:35.240Z,6.40
2018-02-15T21:31:03.591Z,5.40
2018-02-15T21:33:32.832Z,13.43
2018-02-15T21:36:02.137Z,12.30
2018-02-15T21:38:35.614Z,4.57
2018-02-15T21:41:04.057Z,6.80
2018-02-15T21:43:33.344Z,6.70
2018-02-15T21:46:02.217Z,4.53
2018-02-15T21:48:37.938Z,5.20
2018-02-15T21:51:13.599Z,12.87
2018-02-15T21:53:41.943Z,7.63
2018-02-15T21:56:11.081Z,12.37
2018-02-15T21:58:43.156Z,4.80
2018-02-15T22:01:13.869Z,4.30
2018-02-15T22:03:42.768Z,7.23
2018-02-15T22:06:12.987Z,6.30
2018-02-15T22:08:42.691Z,10.03
2018-02-15T22:11:18.089Z,5.27
2018-02-15T22:13:47.440Z,15.83
2018-02-15T22:16:15.921Z,9.20
2018-02-15T22:18:48.822Z,3.73
2018-02-15T22:21:17.497Z,1.07
2018-02-15T22:23:52.030Z,3.07
2018-02-15T22:26:20.604Z,1.00
2018-02-15T22:28:49.100Z,1.20
2018-02-15T22:31:20.473Z,2.83
2018-02-15T22:33:49.052Z,3.40
2018-02-15T22:36:18.218Z,2.50
2018-02-15T22:38:47.415Z,3.23
2018-02-15T22:41:16.097Z,4.33
2018-02-15T22:43:52.042Z,3.07
2018-02-15T22:46:20.675Z,3.27
2018-02-15T22:48:50.646Z,1.87
2018-02-15T22:51:20.978Z,4.40
2018-02-15T22:53:49.979Z,2.13
2018-02-15T22:56:20.609Z,2.20
2018-02-15T22:58:50.098Z,2.07
2018-02-15T23:01:18.605Z,3.40
2018-02-15T23:03:47.162Z,2.00
2018-02-15T23:06:15.577Z,1.40
2018-02-15T23:08:44.095Z,1.27
2018-02-15T23:11:13.186Z,1.20
2018-02-15T23:13:42.469Z,3.43
2018-02-15T23:16:24.748Z,1.23
2018-02-15T23:18:54.436Z,2.20
2018-02-15T23:21:23.180Z,1.33
2018-02-15T23:23:52.537Z,3.57
2018-02-15T23:26:21.203Z,7.60
2018-02-15T23:28:49.787Z,3.70
2018-02-15T23:31:18.415Z,2.87
2018-02-15T23:33:46.724Z,2.87
2018-02-15T23:36:16.017Z,5.70
2018-02-15T23:38:45.246Z,1.20
2018-02-15T23:41:29.399Z,4.00
2018-02-15T23:43:57.912Z,4.80
2018-02-15T23:46:26.749Z,2.63
2018-02-15T23:48:57.715Z,1.93
2018-02-15T23:51:26.601Z,1.53
2018-02-15T23:53:55.079Z,2.63
2018-02-15T23:56:24.501Z,2.70
2018-02-15T23:58:53.168Z,1.57
